Time;durP1;ratioP1;P1;durP2;ratioP2;P2;SDS_P1;SDS_P2;PMS_P1;PMS_P2;Temp;Humidity;BMP_temperature;BMP_pressure;BME280_temperature;BME280_humidity;BME280_pressure;Samples;Min_cycle;Max_cycle;Signal;HPM_P1;HPM_P2
2022/06/27 00:01:45;;;;;;;9.02;6.40;;;;;;;16.71;77.60;101449.41;5056506;28;20468;-78
2022/06/27 00:04:11;;;;;;;9.52;6.57;;;;;;;16.71;77.69;101446.78;5054122;28;20047;-78
2022/06/27 00:06:36;;;;;;;10.88;7.05;;;;;;;16.69;77.52;101444.25;5053922;28;20028;-78
2022/06/27 00:09:01;;;;;;;10.00;6.68;;;;;;;16.69;77.28;101446.88;5056745;28;20021;-77
2022/06/27 00:11:27;;;;;;;8.50;6.70;;;;;;;16.68;77.01;101450.41;5054955;28;20471;-78
2022/06/27 00:13:52;;;;;;;8.50;6.57;;;;;;;16.69;78.34;101439.00;5057214;28;20074;-78
2022/06/27 00:16:17;;;;;;;8.82;6.70;;;;;;;16.69;78.37;101441.63;5055683;28;20102;-78
2022/06/27 00:18:42;;;;;;;8.77;6.82;;;;;;;16.67;77.97;101446.06;5054494;28;20044;-78
2022/06/27 00:21:08;;;;;;;8.43;6.53;;;;;;;16.67;77.93;101443.44;5056479;28;20114;-78
2022/06/27 00:23:33;;;;;;;8.18;6.53;;;;;;;16.67;78.72;101446.06;5059349;28;20040;-78
2022/06/27 00:25:58;;;;;;;9.05;6.85;;;;;;;16.66;78.86;101452.25;5054552;28;20021;-78
2022/06/27 00:28:24;;;;;;;8.60;7.00;;;;;;;16.66;78.83;101452.25;5056154;28;20029;-78
2022/06/27 00:30:49;;;;;;;7.47;6.68;;;;;;;16.67;79.05;101454.81;5056160;28;20033;-78
2022/06/27 00:33:15;;;;;;;9.35;6.22;;;;;;;16.65;78.97;101467.13;5053269;28;20032;-78
2022/06/27 00:35:40;;;;;;;7.93;6.72;;;;;;;16.66;79.09;101468.00;5053740;28;20075;-78
2022/06/27 00:38:06;;;;;;;8.13;6.80;;;;;;;16.65;78.72;101480.28;5055750;28;20064;-78
2022/06/27 00:40:31;;;;;;;9.80;6.60;;;;;;;16.64;78.51;101482.97;5054364;28;20043;-78
2022/06/27 00:42:57;;;;;;;8.57;6.80;;;;;;;16.63;78.50;101483.91;5054589;28;20028;-78
2022/06/27 00:45:22;;;;;;;8.88;7.40;;;;;;;16.62;78.49;101492.69;5049631;28;20029;-78
2022/06/27 00:47:47;;;;;;;9.43;7.13;;;;;;;16.61;78.52;101494.47;5051883;28;20033;-78
2022/06/27 00:50:13;;;;;;;10.85;7.15;;;;;;;16.61;78.77;101480.47;5053707;28;20032;-78
2022/06/27 00:52:39;;;;;;;9.18;7.13;;;;;;;16.59;78.87;101485.81;5056105;28;20027;-78
2022/06/27 00:55:06;;;;;;;8.68;6.95;;;;;;;16.59;79.25;101493.69;5055429;28;20102;-78
2022/06/27 00:57:31;;;;;;;8.88;6.63;;;;;;;16.58;78.68;101480.59;5052750;28;20194;-78
2022/06/27 00:59:56;;;;;;;10.60;7.40;;;;;;;16.58;78.47;101485.84;5054139;28;20091;-77
2022/06/27 01:02:22;;;;;;;11.57;7.20;;;;;;;16.57;78.47;101485.00;5060073;28;20108;-78
2022/06/27 01:04:47;;;;;;;8.80;7.50;;;;;;;16.58;79.14;101476.22;5058874;28;20047;-78
2022/06/27 01:07:12;;;;;;;9.00;6.90;;;;;;;16.59;79.32;101466.53;5062175;28;20100;-78
2022/06/27 01:09:39;;;;;;;11.65;7.07;;;;;;;16.60;79.66;101473.50;5057755;28;20032;-77
2022/06/27 01:12:05;;;;;;;9.68;7.47;;;;;;;16.60;78.98;101478.75;5057166;28;20025;-78
2022/06/27 01:14:31;;;;;;;10.10;6.95;;;;;;;16.58;78.96;101473.59;5054950;28;20075;-78
2022/06/27 01:16:57;;;;;;;9.27;6.55;;;;;;;16.58;79.49;101483.22;5060271;28;20016;-78
2022/06/27 01:19:22;;;;;;;10.75;7.43;;;;;;;16.59;79.19;101484.94;5059316;28;20048;-78
2022/06/27 01:21:53;;;;;;;8.82;7.28;;;;;;;16.58;78.79;101475.34;5058574;28;20375;-77
2022/06/27 01:24:21;;;;;;;11.27;7.32;;;;;;;16.57;79.18;101469.25;5059781;28;20036;-77
2022/06/27 01:26:46;;;;;;;9.68;7.40;;;;;;;16.59;78.83;101472.66;5056500;28;20024;-78
2022/06/27 01:29:12;;;;;;;11.32;7.40;;;;;;;16.57;78.86;101471.88;5062545;28;20030;-78
2022/06/27 01:31:38;;;;;;;10.52;7.20;;;;;;;16.54;78.95;101480.75;5054925;28;20041;-78
2022/06/27 01:34:05;;;;;;;11.13;7.32;;;;;;;16.55;79.54;101471.06;5055291;28;20067;-78
2022/06/27 01:36:42;;;;;;;8.02;6.65;;;;;;;16.55;80.12;101465.81;5055332;28;20476;-78
2022/06/27 01:39:11;;;;;;;9.73;7.03;;;;;;;16.53;80.25;101463.28;5058740;28;20028;-78
2022/06/27 01:41:39;;;;;;;9.32;6.90;;;;;;;16.51;79.72;101459.84;5058405;28;20032;-78
2022/06/27 01:44:04;;;;;;;9.45;7.63;;;;;;;16.51;78.99;101453.72;5060305;28;20021;-77
2022/06/27 01:46:41;;;;;;;9.48;7.38;;;;;;;16.51;79.26;101444.09;5057722;28;20890;-78
2022/06/27 01:49:07;;;;;;;9.63;6.88;;;;;;;16.50;80.06;101431.00;5058997;28;20024;-77
2022/06/27 01:51:33;;;;;;;9.35;6.88;;;;;;;16.51;79.91;101438.84;5055381;28;20024;-77
2022/06/27 01:53:58;;;;;;;9.88;7.22;;;;;;;16.48;80.17;101425.81;5059009;28;20116;-78
2022/06/27 01:56:24;;;;;;;9.52;7.40;;;;;;;16.49;80.20;101419.66;5057997;28;20111;-78
2022/06/27 01:58:52;;;;;;;8.18;7.07;;;;;;;16.48;80.29;101411.84;5059549;28;20474;-78
2022/06/27 02:01:18;;;;;;;11.13;7.28;;;;;;;16.44;80.93;101411.09;5055821;28;20070;-78
2022/06/27 02:03:44;;;;;;;9.45;7.18;;;;;;;16.44;80.88;101413.72;5055517;28;20029;-78
2022/06/27 02:06:09;;;;;;;9.95;7.20;;;;;;;16.43;80.47;101424.31;5058628;28;20435;-78
2022/06/27 02:08:36;;;;;;;9.35;6.75;;;;;;;16.45;80.74;101427.72;5060360;28;20029;-78
2022/06/27 02:11:01;;;;;;;10.38;7.30;;;;;;;16.45;80.68;101431.19;5055447;28;20094;-77
2022/06/27 02:13:27;;;;;;;9.38;6.80;;;;;;;16.44;80.28;101431.28;5052542;28;20045;-77
2022/06/27 02:16:08;;;;;;;9.45;6.97;;;;;;;16.43;79.96;101425.16;5060805;28;20025;-77
2022/06/27 02:18:34;;;;;;;12.02;7.20;;;;;;;16.43;80.52;101413.81;5054269;28;20056;-77
2022/06/27 02:21:00;;;;;;;9.30;7.32;;;;;;;16.42;80.37;101412.94;5056296;28;20024;-77
2022/06/27 02:23:25;;;;;;;10.43;7.43;;;;;;;16.40;79.85;101406.88;5054133;28;20046;-78
2022/06/27 02:25:51;;;;;;;9.82;7.30;;;;;;;16.40;79.89;101409.50;5059530;28;20067;-77
2022/06/27 02:28:20;;;;;;;9.98;6.85;;;;;;;16.39;80.04;101407.84;5059132;28;20033;-77
2022/06/27 02:30:45;;;;;;;12.57;7.25;;;;;;;16.41;81.27;101405.97;5054953;28;20025;-77
2022/06/27 02:33:11;;;;;;;8.90;7.18;;;;;;;16.41;81.25;101399.88;5052931;28;20372;-78
2022/06/27 02:35:39;;;;;;;11.15;7.03;;;;;;;16.39;80.57;101397.34;5055024;28;20394;-77
2022/06/27 02:38:06;;;;;;;8.77;7.10;;;;;;;16.37;80.46;101396.53;5054501;28;20037;-77
2022/06/27 02:40:33;;;;;;;8.98;7.68;;;;;;;16.37;80.51;101404.41;5052658;28;20045;-78
2022/06/27 02:42:59;;;;;;;7.97;7.13;;;;;;;16.36;80.88;101402.72;5058413;28;20481;-77
2022/06/27 02:45:30;;;;;;;9.40;6.68;;;;;;;16.36;80.75;101395.66;5054432;28;20078;-78
2022/06/27 02:48:01;;;;;;;10.63;7.57;;;;;;;16.34;80.65;101394.88;5061045;28;20039;-78
2022/06/27 02:50:29;;;;;;;7.90;6.53;;;;;;;16.35;80.91;101388.69;5060627;28;20021;-78
2022/06/27 02:52:56;;;;;;;8.35;6.38;;;;;;;16.34;80.97;101373.03;5059058;28;20571;-77
2022/06/27 02:55:34;;;;;;;8.65;6.72;;;;;;;16.32;80.90;101377.47;5058000;28;20064;-78
2022/06/27 02:58:07;;;;;;;9.55;7.05;;;;;;;16.28;80.73;101370.66;5053123;28;20032;-78
2022/06/27 03:00:35;;;;;;;10.35;6.97;;;;;;;16.23;80.51;101369.06;5055109;28;20044;-78
2022/06/27 03:03:03;;;;;;;10.45;7.90;;;;;;;16.21;80.34;101368.28;5055101;28;20028;-78
2022/06/27 03:05:29;;;;;;;9.98;7.25;;;;;;;16.21;80.89;101367.41;5056830;28;20082;-78
2022/06/27 03:07:54;;;;;;;9.80;7.65;;;;;;;16.18;80.82;101364.91;5061870;28;20020;-78
2022/06/27 03:10:20;;;;;;;10.25;7.65;;;;;;;16.14;80.93;101366.81;5058585;28;20345;-77
2022/06/27 03:12:46;;;;;;;9.68;7.32;;;;;;;16.11;81.00;101360.84;5058666;28;20111;-78
2022/06/27 03:15:12;;;;;;;8.98;7.78;;;;;;;16.06;81.15;101363.63;5055434;28;20174;-78
2022/06/27 03:17:37;;;;;;;8.65;6.95;;;;;;;16.03;81.37;101353.28;5057639;28;20036;-78
2022/06/27 03:20:03;;;;;;;9.85;7.50;;;;;;;16.02;81.32;101354.22;5054964;28;20028;-77
2022/06/27 03:22:28;;;;;;;10.32;7.20;;;;;;;15.99;81.62;101351.69;5060044;28;20032;-78
2022/06/27 03:24:54;;;;;;;10.15;7.90;;;;;;;15.97;81.45;101346.50;5055231;28;20112;-77
2022/06/27 03:27:19;;;;;;;13.10;7.82;;;;;;;15.95;81.15;101350.09;5058491;28;20047;-77
2022/06/27 03:29:44;;;;;;;11.57;7.55;;;;;;;15.93;81.17;101342.31;5054805;28;20025;-77
2022/06/27 03:32:10;;;;;;;9.05;7.45;;;;;;;15.91;81.12;101344.97;5052037;28;20518;-78
2022/06/27 03:34:35;;;;;;;10.25;7.47;;;;;;;15.89;81.13;101346.81;5061885;28;20036;-78
2022/06/27 03:37:00;;;;;;;10.00;7.70;;;;;;;15.89;80.86;101356.47;5057502;28;20051;-77
2022/06/27 03:39:26;;;;;;;9.82;6.95;;;;;;;15.88;80.89;101354.75;5057777;28;20129;-77
2022/06/27 03:41:51;;;;;;;10.93;7.28;;;;;;;15.88;80.82;101352.13;5050878;28;20044;-77
2022/06/27 03:44:17;;;;;;;10.20;7.43;;;;;;;15.88;81.32;101350.38;5056986;28;20081;-77
2022/06/27 03:46:42;;;;;;;10.75;7.53;;;;;;;15.87;81.03;101348.66;5058761;28;20032;-77
2022/06/27 03:51:52;;;;;;;11.23;7.45;;;;;;;15.85;81.16;101350.50;5055539;28;20826;-77
2022/06/27 03:54:18;;;;;;;11.20;7.50;;;;;;;15.86;81.31;101361.81;5056153;28;20367;-77
2022/06/27 03:56:43;;;;;;;10.65;7.50;;;;;;;15.85;81.15;101355.72;5059867;28;20032;-77
2022/06/27 03:59:09;;;;;;;9.95;7.63;;;;;;;15.85;81.02;101366.22;5059297;28;20459;-78
2022/06/27 04:01:34;;;;;;;9.60;7.88;;;;;;;15.83;80.99;101360.16;5054099;28;20048;-77
2022/06/27 04:04:00;;;;;;;11.25;7.40;;;;;;;15.85;81.02;101354.84;5053968;28;20447;-78
2022/06/27 04:06:25;;;;;;;10.57;7.97;;;;;;;15.83;81.43;101362.78;5052537;28;20526;-78
2022/06/27 04:08:51;;;;;;;11.20;7.95;;;;;;;15.81;81.28;101375.09;5060919;28;20031;-77
2022/06/27 04:11:16;;;;;;;11.38;7.72;;;;;;;15.83;81.10;101375.91;5053552;28;20028;-77
2022/06/27 04:13:41;;;;;;;12.75;8.02;;;;;;;15.85;80.79;101371.47;5060196;28;20037;-77
2022/06/27 04:16:07;;;;;;;10.77;8.18;;;;;;;15.88;80.84;101375.75;5062026;28;20034;-77
2022/06/27 04:18:32;;;;;;;10.05;7.90;;;;;;;15.92;80.64;101378.19;5055487;28;20050;-77
2022/06/27 04:20:57;;;;;;;12.18;8.00;;;;;;;15.97;80.75;101387.63;5053747;28;20142;-77
2022/06/27 04:23:22;;;;;;;11.45;8.32;;;;;;;16.00;80.94;101379.66;5055203;28;20021;-78
2022/06/27 04:25:48;;;;;;;10.20;7.90;;;;;;;16.00;80.99;101374.41;5055572;28;20043;-78
2022/06/27 04:28:13;;;;;;;11.07;7.80;;;;;;;16.02;80.78;101370.78;5058556;28;20024;-77
2022/06/27 04:30:41;;;;;;;11.90;7.85;;;;;;;16.05;81.13;101375.91;5052926;28;20116;-77
2022/06/27 04:33:08;;;;;;;10.90;8.13;;;;;;;16.07;81.25;101362.72;5055191;28;20645;-78
2022/06/27 04:35:33;;;;;;;10.18;8.30;;;;;;;16.08;81.10;101351.31;5059912;28;20111;-78
2022/06/27 04:37:58;;;;;;;10.75;8.25;;;;;;;16.08;81.29;101339.06;5057062;28;20025;-77
2022/06/27 04:40:25;;;;;;;10.95;8.48;;;;;;;16.10;81.56;101330.28;5054519;28;20043;-78
2022/06/27 04:42:50;;;;;;;10.77;8.63;;;;;;;16.10;81.44;101328.47;5057671;28;20021;-78
2022/06/27 04:45:18;;;;;;;11.00;8.57;;;;;;;16.11;81.88;101324.94;5061759;28;20032;-77
2022/06/27 04:47:44;;;;;;;12.88;8.93;;;;;;;16.13;82.28;101332.78;5060796;28;20021;-77
2022/06/27 04:50:13;;;;;;;10.20;8.38;;;;;;;16.15;82.18;101321.28;5061303;28;20012;-77
2022/06/27 04:52:39;;;;;;;11.98;8.90;;;;;;;16.15;82.10;101313.41;5059805;28;20024;-77
2022/06/27 04:55:10;;;;;;;12.68;8.57;;;;;;;16.15;82.15;101320.41;5068035;28;20467;-77
2022/06/27 04:57:37;;;;;;;11.23;8.93;;;;;;;16.16;82.02;101332.63;5063388;28;20024;-77
2022/06/27 05:00:05;;;;;;;11.88;8.30;;;;;;;16.17;82.30;101335.19;5066849;28;20029;-78
2022/06/27 05:02:30;;;;;;;11.85;8.77;;;;;;;16.19;81.63;101335.13;5068518;28;20119;-77
2022/06/27 05:04:56;;;;;;;11.90;9.10;;;;;;;16.21;81.50;101328.91;5067690;28;20020;-78
2022/06/27 05:07:23;;;;;;;13.35;9.07;;;;;;;16.23;81.84;101323.59;5059001;28;20037;-77
2022/06/27 05:09:52;;;;;;;11.93;9.32;;;;;;;16.23;81.82;101327.06;5063911;28;20024;-77
2022/06/27 05:12:17;;;;;;;10.57;8.98;;;;;;;16.24;81.40;101328.75;5065974;28;20036;-77
2022/06/27 05:14:43;;;;;;;12.32;8.80;;;;;;;16.24;81.37;101314.78;5068906;28;20028;-78
2022/06/27 05:17:08;;;;;;;11.98;9.18;;;;;;;16.22;81.29;101307.00;5060016;28;20028;-77
2022/06/27 05:19:33;;;;;;;12.52;9.20;;;;;;;16.23;81.75;101305.22;5063458;28;20032;-78
2022/06/27 05:21:58;;;;;;;11.07;8.98;;;;;;;16.23;82.05;101299.97;5054407;28;20025;-77
2022/06/27 05:24:24;;;;;;;11.50;9.40;;;;;;;16.23;82.40;101302.59;5058369;28;20387;-77
2022/06/27 05:26:49;;;;;;;11.32;9.18;;;;;;;16.21;81.92;101307.03;5060867;28;20114;-77
2022/06/27 05:29:14;;;;;;;10.02;8.80;;;;;;;16.22;81.48;101314.88;5059905;28;20013;-78
2022/06/27 05:31:40;;;;;;;12.50;9.02;;;;;;;16.22;81.02;101327.13;5065333;28;20035;-78
2022/06/27 05:34:05;;;;;;;11.50;9.13;;;;;;;16.22;81.44;101312.25;5070347;28;20142;-78
2022/06/27 05:36:30;;;;;;;11.63;9.20;;;;;;;16.24;82.32;101309.53;5061499;28;20064;-77
2022/06/27 05:38:56;;;;;;;12.52;8.98;;;;;;;16.24;82.67;101305.13;5071855;28;20089;-77
2022/06/27 05:41:21;;;;;;;12.43;8.73;;;;;;;16.26;82.32;101325.22;5073571;28;20055;-77
2022/06/27 05:43:47;;;;;;;14.77;10.60;;;;;;;16.26;82.23;101375.97;5071602;28;20057;-78
2022/06/27 05:46:13;;;;;;;15.98;10.30;;;;;;;16.30;82.12;101402.94;5065827;28;20388;-78
2022/06/27 05:48:38;;;;;;;13.32;9.60;;;;;;;16.32;81.83;101406.38;5069747;28;20032;-77
2022/06/27 05:51:03;;;;;;;16.80;10.23;;;;;;;16.35;81.55;101401.00;5061662;28;20032;-78
2022/06/27 05:53:30;;;;;;;17.40;10.27;;;;;;;16.39;81.84;101413.09;5069252;28;20024;-78
2022/06/27 05:55:55;;;;;;;12.07;9.93;;;;;;;16.42;81.10;101412.94;5072290;28;20361;-78
2022/06/27 05:58:21;;;;;;;11.02;9.30;;;;;;;16.46;81.21;101427.66;5064286;28;20035;-77
2022/06/27 06:00:46;;;;;;;14.23;9.82;;;;;;;16.48;81.45;101444.22;5064212;28;20033;-78
2022/06/27 06:03:11;;;;;;;12.88;9.45;;;;;;;16.51;81.31;101437.97;5065493;28;20031;-78
2022/06/27 06:05:37;;;;;;;13.38;10.07;;;;;;;16.52;81.38;101431.78;5065075;28;20043;-78
2022/06/27 06:08:04;;;;;;;13.43;9.68;;;;;;;16.53;81.53;101437.00;5067071;28;20072;-78
2022/06/27 06:10:31;;;;;;;13.05;9.60;;;;;;;16.56;81.42;101443.06;5066723;28;20020;-78
2022/06/27 06:12:56;;;;;;;13.95;10.00;;;;;;;16.58;80.90;101449.94;5069444;28;20108;-78
2022/06/27 06:15:22;;;;;;;12.30;10.38;;;;;;;16.59;80.43;101445.53;5069986;28;20040;-78
2022/06/27 06:17:47;;;;;;;14.48;10.80;;;;;;;16.60;80.85;101452.50;5060364;28;20372;-78
2022/06/27 06:20:13;;;;;;;14.02;10.55;;;;;;;16.60;81.27;101447.25;5067727;28;20033;-78
2022/06/27 06:22:40;;;;;;;14.45;11.13;;;;;;;16.62;81.25;101440.16;5068703;28;20408;-78
2022/06/27 06:25:07;;;;;;;14.18;10.77;;;;;;;16.62;80.54;101434.91;5077366;28;20039;-78
2022/06/27 06:27:33;;;;;;;13.38;10.45;;;;;;;16.62;80.43;101437.53;5068487;28;20412;-78
2022/06/27 06:30:02;;;;;;;12.93;10.25;;;;;;;16.63;80.39;101441.88;5052071;28;20116;-78
2022/06/27 06:32:28;;;;;;;13.88;9.73;;;;;;;16.64;81.21;101448.81;5064479;28;20078;-78
2022/06/27 06:34:54;;;;;;;13.95;10.30;;;;;;;16.64;81.55;101454.09;5059828;28;20484;-78
2022/06/27 06:37:19;;;;;;;14.88;11.25;;;;;;;16.66;81.47;101452.25;5063761;28;20020;-78
2022/06/27 06:39:45;;;;;;;12.65;10.25;;;;;;;16.68;81.57;101455.66;5062416;28;20379;-78
2022/06/27 06:42:11;;;;;;;12.52;10.40;;;;;;;16.69;81.54;101446.88;5062347;28;20032;-78
2022/06/27 06:44:36;;;;;;;14.52;10.40;;;;;;;16.70;81.48;101427.56;5059282;28;20027;-77
2022/06/27 06:47:02;;;;;;;13.23;10.52;;;;;;;16.73;81.60;101432.69;5056348;28;20766;-78
2022/06/27 06:49:28;;;;;;;14.75;9.65;;;;;;;16.74;80.57;101420.41;5052252;28;20674;-78
2022/06/27 06:51:53;;;;;;;14.75;10.55;;;;;;;16.76;81.47;101400.16;5054681;28;20111;-78
2022/06/27 06:54:20;;;;;;;15.73;10.27;;;;;;;16.77;81.49;101402.72;5054234;28;20463;-78
2022/06/27 06:56:48;;;;;;;12.88;10.93;;;;;;;16.79;81.75;101400.03;5053815;28;20078;-77
2022/06/27 06:59:14;;;;;;;13.35;10.82;;;;;;;16.80;81.48;101397.34;5054872;28;20028;-78
2022/06/27 07:01:40;;;;;;;11.13;9.88;;;;;;;16.84;81.29;101388.41;5051211;28;20025;-78
2022/06/27 07:04:05;;;;;;;13.27;10.25;;;;;;;16.87;81.29;101376.06;5055084;28;20043;-78
2022/06/27 07:06:32;;;;;;;13.50;11.02;;;;;;;16.91;81.76;101367.97;5051660;28;20033;-78
2022/06/27 07:08:59;;;;;;;14.40;10.70;;;;;;;16.96;82.07;101373.03;5053662;28;20028;-77
2022/06/27 07:11:28;;;;;;;13.05;10.70;;;;;;;17.02;82.58;101380.66;5053944;28;20024;-78
2022/06/27 07:13:55;;;;;;;14.10;11.30;;;;;;;17.07;80.93;101393.59;5062516;28;20029;-78
2022/06/27 07:16:21;;;;;;;13.98;10.45;;;;;;;17.11;80.00;101390.75;5053484;28;20025;-78
2022/06/27 07:18:48;;;;;;;13.27;10.82;;;;;;;17.17;79.71;101383.53;5052863;28;20059;-78
2022/06/27 07:21:16;;;;;;;13.95;10.32;;;;;;;17.19;80.16;101360.66;5060623;28;20036;-77
2022/06/27 07:23:41;;;;;;;14.65;11.23;;;;;;;17.21;80.20;101353.56;5068402;28;20093;-78
2022/06/27 07:26:07;;;;;;;13.20;10.45;;;;;;;17.23;79.34;101393.78;5065100;28;20024;-78
2022/06/27 07:28:33;;;;;;;13.95;10.95;;;;;;;17.29;79.81;101422.41;5065124;28;20395;-78
2022/06/27 07:30:59;;;;;;;12.70;9.75;;;;;;;17.33;79.42;101421.38;5069218;28;20024;-78
2022/06/27 07:33:25;;;;;;;13.45;10.63;;;;;;;17.39;79.26;101410.56;5067905;28;20028;-77
2022/06/27 07:35:50;;;;;;;14.32;10.27;;;;;;;17.46;79.26;101429.56;5067139;28;20023;-78
2022/06/27 07:38:15;;;;;;;17.05;10.80;;;;;;;17.57;78.46;101431.72;5066498;28;20103;-78
2022/06/27 07:40:42;;;;;;;13.90;10.10;;;;;;;17.67;78.35;101432.13;5066947;28;20384;-78
2022/06/27 07:43:13;;;;;;;16.65;10.35;;;;;;;17.79;77.74;101414.91;5065244;28;20031;-78
2022/06/27 07:45:39;;;;;;;12.43;8.93;;;;;;;17.84;75.83;101395.34;5067097;28;20043;-78
2022/06/27 07:48:06;;;;;;;12.45;9.07;;;;;;;17.92;76.35;101413.41;5070609;28;20024;-78
2022/06/27 07:50:39;;;;;;;13.30;9.73;;;;;;;17.95;75.55;101425.56;5069001;28;20020;-78
2022/06/27 07:53:12;;;;;;;12.25;10.18;;;;;;;17.99;76.29;101427.16;5066511;28;20472;-78
2022/06/27 07:55:51;;;;;;;13.40;10.07;;;;;;;18.03;76.58;101437.47;5064957;28;20059;-78
2022/06/27 07:58:19;;;;;;;14.77;10.85;;;;;;;18.07;76.35;101447.88;5072849;28;20039;-78
2022/06/27 08:00:47;;;;;;;14.32;10.00;;;;;;;18.11;77.00;101452.03;5062516;28;20488;-78
2022/06/27 08:05:58;;;;;;;14.02;10.20;;;;;;;18.04;75.95;101460.25;5065500;28;20101;-78
2022/06/27 08:08:24;;;;;;;10.95;9.32;;;;;;;18.03;76.83;101474.34;5067852;28;20325;-78
2022/06/27 08:10:50;;;;;;;11.68;9.23;;;;;;;18.06;76.51;101475.97;5064702;28;20027;-78
2022/06/27 08:13:16;;;;;;;14.80;9.13;;;;;;;18.09;75.68;101480.25;5063221;28;20691;-78
2022/06/27 08:15:42;;;;;;;12.73;9.27;;;;;;;18.11;74.71;101481.00;5066895;28;20044;-78
2022/06/27 08:18:08;;;;;;;12.15;9.13;;;;;;;18.16;75.74;101494.81;5067317;28;20094;-78
2022/06/27 08:20:35;;;;;;;13.00;8.63;;;;;;;18.24;75.57;101497.94;5064152;28;20037;-78
2022/06/27 08:23:03;;;;;;;13.43;9.18;;;;;;;18.31;75.67;101482.69;5070925;28;20040;-78
2022/06/27 08:25:29;;;;;;;11.30;8.57;;;;;;;18.35;75.00;101477.19;5055548;28;20135;-78
2022/06/27 08:27:55;;;;;;;11.93;9.15;;;;;;;18.40;75.67;101476.13;5064041;28;20078;-78
2022/06/27 08:30:25;;;;;;;11.75;9.10;;;;;;;18.44;75.85;101477.69;5063922;28;20056;-78
2022/06/27 08:32:55;;;;;;;9.93;8.35;;;;;;;18.47;75.56;101483.66;5063698;28;20024;-78
2022/06/27 08:35:24;;;;;;;12.32;8.98;;;;;;;18.46;74.45;101478.44;5064503;28;20372;-78
2022/06/27 08:37:54;;;;;;;10.93;8.20;;;;;;;18.44;73.59;101493.50;5066659;28;20471;-78
2022/06/27 08:40:21;;;;;;;11.18;8.73;;;;;;;18.42;74.37;101500.63;5062829;28;20086;-78
2022/06/27 08:42:47;;;;;;;11.23;8.65;;;;;;;18.39;74.48;101513.94;5064429;28;20054;-78
2022/06/27 08:45:17;;;;;;;12.23;9.30;;;;;;;18.36;74.29;101517.56;5065469;28;20036;-78
2022/06/27 08:47:43;;;;;;;12.55;9.35;;;;;;;18.34;73.30;101516.81;5069460;28;20029;-78
2022/06/27 08:50:11;;;;;;;12.00;9.18;;;;;;;18.33;73.83;101509.81;5066224;28;20176;-78
2022/06/27 08:52:40;;;;;;;13.85;9.55;;;;;;;18.33;74.66;101499.28;5061887;28;20091;-78
2022/06/27 08:55:08;;;;;;;11.80;9.48;;;;;;;18.35;74.54;101500.06;5064185;28;20079;-78
2022/06/27 08:57:39;;;;;;;13.95;9.57;;;;;;;18.34;74.52;101507.09;5061796;28;20111;-78
2022/06/27 09:00:06;;;;;;;12.83;9.63;;;;;;;18.38;73.77;101504.31;5063874;28;20361;-78
2022/06/27 09:02:33;;;;;;;12.45;10.07;;;;;;;18.35;73.14;101503.53;5063989;28;20364;-78
2022/06/27 09:04:59;;;;;;;16.05;10.38;;;;;;;18.39;73.97;101513.94;5066597;28;20020;-78
2022/06/27 09:07:48;;;;;;;11.35;10.10;;;;;;;18.43;73.93;101515.50;5066901;28;20684;-78
2022/06/27 09:10:30;;;;;;;15.18;10.35;;;;;;;18.51;74.42;101518.59;5075123;28;20436;-78
2022/06/27 09:12:56;;;;;;;14.23;11.77;;;;;;;18.59;73.56;101534.03;5066488;28;20175;-78
2022/06/27 09:15:25;;;;;;;16.13;10.68;;;;;;;18.66;72.75;101527.56;5057143;28;20528;-78
2022/06/27 09:18:03;;;;;;;13.45;10.35;;;;;;;18.73;72.83;101528.09;5069312;28;20024;-77
2022/06/27 09:20:52;;;;;;;11.82;9.55;;;;;;;18.80;72.19;101518.94;5066057;28;20029;-76
2022/06/27 09:23:53;;;;;;;13.43;9.85;;;;;;;18.87;72.10;101512.47;5079167;28;20024;-79
2022/06/27 09:26:21;;;;;;;13.73;9.15;;;;;;;18.96;71.68;101500.63;5064384;28;20120;-77
2022/06/27 09:29:14;;;;;;;11.63;9.40;;;;;;;19.03;71.36;101493.25;5071010;28;20099;-76
2022/06/27 09:31:42;;;;;;;11.35;9.88;;;;;;;19.13;72.63;101506.81;5065970;28;20028;-76
2022/06/27 09:34:14;;;;;;;12.40;9.57;;;;;;;19.20;70.84;101518.78;5051027;28;20040;-77
2022/06/27 09:36:51;;;;;;;11.30;9.18;;;;;;;19.25;70.84;101525.53;5053349;28;20376;-77
2022/06/27 09:39:35;;;;;;;12.57;10.43;;;;;;;19.30;71.45;101530.56;5062297;28;20039;-77
2022/06/27 09:42:10;;;;;;;13.55;10.00;;;;;;;19.36;72.44;101529.38;5063115;28;20047;-76
2022/06/27 09:44:39;;;;;;;12.90;9.30;;;;;;;19.41;71.14;101527.34;5064237;28;20045;-77
2022/06/27 09:47:13;;;;;;;12.18;9.48;;;;;;;19.42;69.57;101532.53;5063104;28;20024;-77
2022/06/27 09:49:43;;;;;;;16.33;9.07;;;;;;;19.46;69.21;101521.81;5052723;28;20020;-77
2022/06/27 09:52:14;;;;;;;10.73;8.98;;;;;;;19.52;69.20;101509.16;5053667;28;20472;-77
2022/06/27 09:54:42;;;;;;;10.82;8.60;;;;;;;19.62;68.63;101506.88;5054992;28;20032;-77
2022/06/27 09:57:09;;;;;;;11.10;7.97;;;;;;;19.73;68.24;101505.47;5053346;28;20395;-77
2022/06/27 09:59:36;;;;;;;9.32;7.60;;;;;;;19.81;65.83;101504.09;5053375;28;20032;-76
2022/06/27 10:02:02;;;;;;;9.20;7.50;;;;;;;19.85;66.67;101515.38;5049916;28;20377;-77
2022/06/27 10:04:29;;;;;;;9.70;7.40;;;;;;;19.87;65.36;101510.88;5055483;28;20028;-76
2022/06/27 10:06:58;;;;;;;10.82;7.53;;;;;;;19.88;64.97;101509.97;5054546;28;20048;-77
2022/06/27 10:09:25;;;;;;;9.98;7.30;;;;;;;19.86;64.13;101510.00;5058553;28;20078;-77
2022/06/27 10:12:31;;;;;;;11.80;8.90;;;;;;;19.88;67.35;101499.41;5058698;28;20098;-76
2022/06/27 10:15:17;;;;;;;11.25;8.13;;;;;;;19.94;67.94;101492.91;5056298;28;20017;-77
2022/06/27 10:17:45;;;;;;;11.00;7.80;;;;;;;19.98;67.32;101491.81;5053536;28;20051;-76
2022/06/27 10:20:20;;;;;;;9.50;7.38;;;;;;;20.02;65.96;101483.63;5056388;28;20526;-76
2022/06/27 10:23:04;;;;;;;9.25;7.60;;;;;;;;;;5059392;28;20024;-77
2022/06/27 10:25:29;;;;;;;11.40;7.68;;;;;;;20.22;65.64;101486.09;5055919;28;20116;-77
2022/06/27 10:28:09;;;;;;;9.20;7.18;;;;;;;20.31;65.40;101488.22;5056820;28;20036;-77
2022/06/27 10:30:37;;;;;;;9.83;6.90;;;;;;;20.36;64.95;101488.78;5048032;28;20028;-76
2022/06/27 10:33:21;;;;;;;10.25;8.40;;;;;;;20.42;66.53;101480.53;5049630;28;20091;-77
2022/06/27 10:35:59;;;;;;;10.40;8.15;;;;;;;20.45;66.05;101483.00;5050727;28;20226;-76
2022/06/27 10:38:34;;;;;;;7.63;5.75;;;;;;;20.45;63.98;101476.84;5049255;28;20032;-76
2022/06/27 10:41:01;;;;;;;6.97;4.88;;;;;;;20.44;61.74;101476.00;5052940;28;20040;-77
2022/06/27 10:43:39;;;;;;;5.95;4.40;;;;;;;20.42;61.94;101488.47;5058016;28;20043;-77
2022/06/27 10:46:10;;;;;;;5.97;3.78;;;;;;;20.37;61.33;101487.84;5053814;28;20558;-77
2022/06/27 10:48:43;;;;;;;;;;;;;;;20.42;64.49;101483.16;5054286;28;20107;-77
2022/06/27 10:51:31;;;;;;;5.15;2.90;;;;;;;20.43;62.80;101490.16;5053619;28;19982;-77
2022/06/27 10:54:06;;;;;;;5.97;3.95;;;;;;;20.45;61.97;101493.56;5054522;28;20035;-77
2022/06/27 10:56:31;;;;;;;5.97;4.50;;;;;;;20.51;60.08;101495.00;5051829;28;20025;-77
2022/06/27 10:59:02;;;;;;;4.43;3.10;;;;;;;20.53;58.48;101492.25;5049883;28;20102;-77
2022/06/27 11:01:28;;;;;;;5.43;3.63;;;;;;;20.46;58.82;101489.13;5050827;28;20653;-77
2022/06/27 11:03:53;;;;;;;5.90;3.67;;;;;;;20.42;60.27;101491.09;5052171;28;21103;-77
2022/06/27 11:06:20;;;;;;;6.90;4.80;;;;;;;20.39;59.57;101493.91;5052328;28;20028;-77
2022/06/27 11:08:48;;;;;;;7.05;4.60;;;;;;;20.37;61.95;101495.78;5052417;28;20043;-77
2022/06/27 11:11:21;;;;;;;7.25;4.65;;;;;;;20.32;61.19;101509.25;5053005;28;20024;-77
2022/06/27 11:14:07;;;;;;;6.97;4.28;;;;;;;20.30;60.95;101505.03;5050304;28;20060;-77
2022/06/27 11:16:34;;;;;;;6.38;3.72;;;;;;;20.25;62.52;101505.25;5053384;28;20098;-77
2022/06/27 11:19:02;;;;;;;6.13;3.90;;;;;;;20.23;60.97;101503.66;5052120;28;20044;-77
2022/06/27 11:21:32;;;;;;;6.97;3.78;;;;;;;20.25;61.68;101504.41;5050367;28;20029;-77
2022/06/27 11:24:10;;;;;;;6.40;4.40;;;;;;;20.24;61.67;101500.91;5056115;28;20063;-77
2022/06/27 11:26:44;;;;;;;6.90;5.00;;;;;;;20.24;61.54;101508.81;5051165;28;20032;-76
2022/06/27 11:32:02;;;;;;;6.80;4.75;;;;;;;20.31;58.68;101504.06;5055535;28;20051;-77